Terminal Aerodrome Forecast
Issued by NWS

Home | Current Version | Previous Version | Text Only | Print | Product List | Glossary On
Versions: 1 2 3 4 5 6 7 8 9 10 11 12 13 14 15 16 17 18 19
000
FTUS45 KBOU 221108 AAA
TAFAPA
TAF AMD
KAPA 221108Z 2211/2306 VRB04KT P6SM FEW020 SCT250
     FM221300 12005KT P6SM FEW008 SCT020
     FM221600 12010KT P6SM SCT030 SCT120
     FM222000 12013G21KT P6SM SCT070 SCT150 PROB30 2222/2302
      VRB20G30KT -TSRA BKN060CB
     FM230200 15013G20KT P6SM SCT070 BKN120
     FM230500 18013KT P6SM SCT070 BKN120=

USA.gov is the U.S. government's official web portal to all federal, state and local government web resources and services.